Time;durP1;ratioP1;P1;durP2;ratioP2;P2;SDS_P1;SDS_P2;PMS_P1;PMS_P2;Temp;Humidity;BMP_temperature;BMP_pressure;BME280_temperature;BME280_humidity;BME280_pressure;Samples;Min_cycle;Max_cycle;Signal;HPM_P1;HPM_P2
2021/07/19 05:24:12;;;;;;;1.10;0.90;;;19.60;79.10;;;;;;5109442;27;20470;-78
2021/07/19 05:26:38;;;;;;;1.23;0.80;;;19.80;79.20;;;;;;5108121;28;20504;-78
2021/07/19 05:29:05;;;;;;;0.93;0.70;;;20.00;78.60;;;;;;5091165;28;20082;-77
2021/07/19 05:31:31;;;;;;;1.23;0.88;;;20.50;76.80;;;;;;5108042;28;20035;-79
2021/07/19 05:33:56;;;;;;;1.35;0.85;;;20.80;75.90;;;;;;5081602;28;20386;-76
2021/07/19 05:36:22;;;;;;;1.63;0.95;;;21.10;74.60;;;;;;5087726;28;20486;-77
2021/07/19 05:38:48;;;;;;;1.10;0.80;;;21.30;73.60;;;;;;5092111;28;20016;-77
2021/07/19 05:41:14;;;;;;;1.27;0.90;;;21.40;73.30;;;;;;5091752;28;20103;-77
2021/07/19 05:43:40;;;;;;;1.15;0.90;;;21.50;73.00;;;;;;5092209;28;20025;-78
2021/07/19 05:46:05;;;;;;;1.30;0.88;;;21.60;72.30;;;;;;5086264;28;20039;-77
2021/07/19 05:48:32;;;;;;;1.35;0.80;;;21.70;72.10;;;;;;5088709;28;20405;-77
2021/07/19 05:50:57;;;;;;;1.10;0.82;;;21.70;71.90;;;;;;5086409;28;20033;-77
2021/07/19 05:53:24;;;;;;;0.80;0.60;;;21.80;71.50;;;;;;5086713;28;20027;-76
2021/07/19 05:55:50;;;;;;;1.10;0.90;;;21.80;71.40;;;;;;5090081;28;20390;-76
2021/07/19 05:58:17;;;;;;;1.13;0.82;;;21.90;71.20;;;;;;5088303;28;20024;-77
2021/07/19 06:00:45;;;;;;;1.20;0.90;;;21.90;71.10;;;;;;5091694;28;20032;-76
2021/07/19 06:03:11;;;;;;;1.35;0.77;;;21.90;70.70;;;;;;5091347;28;20025;-76
2021/07/19 06:05:38;;;;;;;1.20;0.73;;;22.00;70.90;;;;;;5090715;28;20050;-76
2021/07/19 06:08:04;;;;;;;1.20;0.70;;;22.00;70.80;;;;;;5091267;28;20025;-76
2021/07/19 06:10:30;;;;;;;2.67;0.93;;;22.00;70.40;;;;;;5089529;28;20020;-76
2021/07/19 06:12:56;;;;;;;1.30;0.73;;;22.20;70.00;;;;;;5091286;28;20024;-76
2021/07/19 06:15:22;;;;;;;1.30;0.85;;;22.10;70.10;;;;;;5090036;28;20695;-76
2021/07/19 06:17:48;;;;;;;1.00;0.60;;;22.20;69.60;;;;;;5090761;28;20509;-77
2021/07/19 06:20:27;;;;;;;1.10;0.85;;;22.30;69.70;;;;;;5091360;28;20028;-77
2021/07/19 06:22:53;;;;;;;1.40;0.80;;;22.30;70.20;;;;;;5089904;28;20170;-76
2021/07/19 06:25:19;;;;;;;1.98;0.85;;;22.40;69.80;;;;;;5091337;28;20047;-77
2021/07/19 06:27:45;;;;;;;1.83;0.90;;;22.30;70.10;;;;;;5090176;28;20024;-76
2021/07/19 06:30:13;;;;;;;1.60;0.90;;;22.40;69.30;;;;;;5091451;28;20020;-77
2021/07/19 06:32:39;;;;;;;1.20;0.95;;;22.40;69.20;;;;;;5090392;28;20104;-77
2021/07/19 06:35:06;;;;;;;1.00;0.70;;;22.50;69.10;;;;;;5080679;28;20024;-77
2021/07/19 06:37:32;;;;;;;1.10;0.90;;;22.50;69.10;;;;;;5077116;28;20028;-76
2021/07/19 06:39:57;;;;;;;0.82;0.65;;;22.50;69.30;;;;;;5076656;28;20087;-77
2021/07/19 06:42:23;;;;;;;1.45;0.90;;;22.60;69.20;;;;;;5077191;28;20395;-76
2021/07/19 06:44:53;;;;;;;1.40;0.80;;;22.60;69.00;;;;;;5077103;28;20104;-76
2021/07/19 06:47:20;;;;;;;1.25;0.70;;;22.60;69.40;;;;;;5075747;28;20028;-76
2021/07/19 06:49:46;;;;;;;1.20;0.80;;;22.60;69.30;;;;;;5076684;28;20074;-76
2021/07/19 06:52:11;;;;;;;1.00;0.80;;;22.70;68.70;;;;;;5076007;28;20060;-77
2021/07/19 06:54:37;;;;;;;1.75;0.88;;;22.70;69.10;;;;;;5097561;28;20039;-76
2021/07/19 06:57:03;;;;;;;1.45;0.80;;;22.80;69.20;;;;;;5097476;28;20035;-76
2021/07/19 06:59:29;;;;;;;1.13;0.70;;;22.80;68.80;;;;;;5093713;28;20027;-76
2021/07/19 07:01:55;;;;;;;1.50;0.75;;;22.90;68.60;;;;;;5073942;28;20032;-77
2021/07/19 07:07:27;;;;;;;1.00;0.80;;;22.90;68.50;;;;;;5065458;28;20874;-75
2021/07/19 07:09:53;;;;;;;1.10;0.73;;;22.80;68.60;;;;;;5052327;28;20033;-75
2021/07/19 07:12:20;;;;;;;1.85;0.90;;;23.00;69.60;;;;;;5050628;28;20116;-75
2021/07/19 07:14:45;;;;;;;0.93;0.70;;;23.10;68.80;;;;;;5052334;28;20108;-76
2021/07/19 07:17:11;;;;;;;0.90;0.80;;;23.30;68.80;;;;;;5066468;28;20070;-74
2021/07/19 07:19:37;;;;;;;0.90;0.73;;;23.30;68.90;;;;;;5054179;28;20064;-75
2021/07/19 07:22:03;;;;;;;1.27;0.80;;;23.50;67.90;;;;;;5051965;28;20029;-74
2021/07/19 07:24:28;;;;;;;0.90;0.65;;;24.20;65.60;;;;;;5051816;28;20033;-75
2021/07/19 07:26:54;;;;;;;1.73;0.70;;;25.40;62.20;;;;;;5051856;28;20044;-75
2021/07/19 07:29:20;;;;;;;1.58;0.65;;;28.00;53.90;;;;;;5051876;28;20414;-76
2021/07/19 07:31:45;;;;;;;0.63;0.40;;;30.60;48.80;;;;;;5063511;28;20344;-75
2021/07/19 07:34:11;;;;;;;1.48;0.50;;;31.80;44.50;;;;;;5071650;28;20395;-76
2021/07/19 07:36:39;;;;;;;0.85;0.50;;;32.80;41.50;;;;;;5071153;28;20098;-76
2021/07/19 07:39:05;;;;;;;0.95;0.50;;;34.40;39.20;;;;;;5071574;28;20020;-77
2021/07/19 07:41:31;;;;;;;1.88;0.50;;;36.30;36.50;;;;;;5066772;28;20055;-76
2021/07/19 07:43:58;;;;;;;0.80;0.40;;;37.70;33.20;;;;;;5064514;28;20056;-77
2021/07/19 07:46:24;;;;;;;0.93;0.40;;;38.80;31.60;;;;;;5071342;28;20017;-79
2021/07/19 07:48:51;;;;;;;1.05;0.55;;;39.60;30.50;;;;;;5055374;28;20108;-81
2021/07/19 07:51:17;;;;;;;0.85;0.47;;;40.20;29.00;;;;;;5050349;28;20044;-82
2021/07/19 07:53:43;;;;;;;0.60;0.38;;;40.70;29.30;;;;;;5063941;28;20096;-82
2021/07/19 07:56:10;;;;;;;0.70;0.40;;;41.00;27.50;;;;;;5051182;28;20037;-82
2021/07/19 07:58:35;;;;;;;0.60;0.40;;;41.40;27.20;;;;;;5054885;28;20016;-82
2021/07/19 08:01:01;;;;;;;1.58;0.40;;;41.70;26.60;;;;;;5071372;28;20135;-82
2021/07/19 08:03:27;;;;;;;0.55;0.30;;;42.10;26.50;;;;;;5053550;28;20396;-82
2021/07/19 08:05:53;;;;;;;1.20;0.40;;;42.40;26.60;;;;;;5057667;28;20044;-82
2021/07/19 08:08:18;;;;;;;0.93;0.50;;;42.90;26.60;;;;;;5070394;28;20029;-83
2021/07/19 08:10:44;;;;;;;1.95;0.65;;;43.30;25.60;;;;;;5069891;28;20108;-83
2021/07/19 08:13:10;;;;;;;1.63;0.45;;;43.10;25.50;;;;;;5068095;28;20030;-83
2021/07/19 08:15:37;;;;;;;0.65;0.40;;;42.70;25.40;;;;;;5070628;28;20475;-83
2021/07/19 08:18:03;;;;;;;0.63;0.43;;;43.40;25.50;;;;;;5059175;28;20017;-82
2021/07/19 08:20:29;;;;;;;1.05;0.50;;;43.90;25.00;;;;;;5052124;28;20048;-82
2021/07/19 08:22:55;;;;;;;0.80;0.50;;;43.90;25.30;;;;;;5049070;28;20380;-83
2021/07/19 08:25:20;;;;;;;0.85;0.50;;;43.90;24.80;;;;;;5056174;28;20033;-82
2021/07/19 08:27:48;;;;;;;0.70;0.50;;;44.20;23.60;;;;;;5050749;28;20100;-82
2021/07/19 08:30:14;;;;;;;0.70;0.40;;;43.80;23.90;;;;;;5041151;28;20112;-82
2021/07/19 08:32:41;;;;;;;0.83;0.50;;;43.70;24.40;;;;;;5057459;28;20095;-82
2021/07/19 08:35:11;;;;;;;0.55;0.40;;;42.50;24.50;;;;;;5057191;28;20048;-82
2021/07/19 08:37:41;;;;;;;1.40;0.40;;;42.70;25.40;;;;;;5037925;28;20775;-82
2021/07/19 08:40:09;;;;;;;0.60;0.40;;;42.40;26.00;;;;;;5037831;28;20044;-82
2021/07/19 08:42:36;;;;;;;0.98;0.40;;;42.80;25.80;;;;;;5038781;28;20411;-82
2021/07/19 08:45:05;;;;;;;1.02;0.57;;;43.20;25.00;;;;;;5055923;28;20041;-83
2021/07/19 08:47:31;;;;;;;0.60;0.45;;;43.00;24.50;;;;;;5057250;28;20630;-82
2021/07/19 08:49:57;;;;;;;0.70;0.60;;;43.10;25.10;;;;;;5057324;28;20024;-82
2021/07/19 08:52:23;;;;;;;0.80;0.57;;;43.10;25.40;;;;;;5049674;28;20037;-82
2021/07/19 08:54:49;;;;;;;0.65;0.40;;;43.30;24.70;;;;;;5057014;28;20532;-82
2021/07/19 08:57:19;;;;;;;0.50;0.40;;;43.40;25.10;;;;;;5055657;28;20437;-82
2021/07/19 08:59:46;;;;;;;1.10;0.50;;;43.30;24.70;;;;;;5057006;28;20029;-82
2021/07/19 09:02:12;;;;;;;0.60;0.40;;;43.50;24.90;;;;;;5046795;28;20029;-79
2021/07/19 09:04:38;;;;;;;0.68;0.45;;;43.10;25.60;;;;;;5036666;28;20372;-79
2021/07/19 09:07:04;;;;;;;0.60;0.40;;;42.90;25.80;;;;;;5040373;28;20045;-79
2021/07/19 09:09:32;;;;;;;0.73;0.50;;;43.30;24.90;;;;;;5056708;28;20372;-79
2021/07/19 09:11:58;;;;;;;;;;;43.50;24.30;;;;;;5052442;28;20128;-79
2021/07/19 09:14:25;;;;;;;0.93;0.40;;;43.60;24.20;;;;;;5036705;28;19948;-79
2021/07/19 09:16:52;;;;;;;1.20;0.60;;;43.00;23.50;;;;;;5036773;28;20029;-79
2021/07/19 09:19:26;;;;;;;0.80;0.50;;;42.40;25.60;;;;;;5040961;28;20029;-79
2021/07/19 09:22:00;;;;;;;1.00;0.50;;;41.30;25.80;;;;;;5056453;28;20025;-78
2021/07/19 09:24:29;;;;;;;0.80;0.50;;;42.00;26.70;;;;;;5056138;28;20025;-78
2021/07/19 09:26:56;;;;;;;0.52;0.40;;;42.80;25.90;;;;;;5056702;28;20032;-79
2021/07/19 09:29:23;;;;;;;1.25;0.50;;;43.10;24.50;;;;;;5047772;28;20044;-79
2021/07/19 09:31:57;;;;;;;1.15;0.60;;;43.30;24.90;;;;;;5055051;28;20021;-79
2021/07/19 09:34:24;;;;;;;1.05;0.55;;;43.90;24.40;;;;;;5054785;28;20040;-80
2021/07/19 09:37:06;;;;;;;1.67;0.50;;;43.70;24.30;;;;;;5056679;28;20186;-79
2021/07/19 09:39:43;;;;;;;0.70;0.40;;;44.00;24.30;;;;;;5056315;28;20533;-79
2021/07/19 09:42:14;;;;;;;1.03;0.50;;;43.90;25.10;;;;;;5039279;28;20034;-79
2021/07/19 09:44:41;;;;;;;0.70;0.45;;;43.30;24.60;;;;;;5055135;28;20028;-79
2021/07/19 09:47:11;;;;;;;0.70;0.40;;;43.40;24.60;;;;;;5038835;28;20033;-79
2021/07/19 09:49:38;;;;;;;0.73;0.50;;;43.60;23.80;;;;;;5043909;28;20033;-79
2021/07/19 09:52:08;;;;;;;1.05;0.50;;;43.90;24.30;;;;;;5056508;28;20025;-79
2021/07/19 09:54:37;;;;;;;1.40;0.55;;;43.40;25.30;;;;;;5059107;28;20702;-79
2021/07/19 09:57:03;;;;;;;1.27;0.60;;;44.00;25.00;;;;;;5035678;28;20037;-79
2021/07/19 09:59:29;;;;;;;0.70;0.40;;;44.00;23.90;;;;;;5045983;28;20025;-79
2021/07/19 10:01:55;;;;;;;0.73;0.43;;;43.50;24.30;;;;;;5055881;28;20048;-79
2021/07/19 10:04:21;;;;;;;1.52;0.50;;;44.00;23.60;;;;;;5053880;28;20108;-79
2021/07/19 10:06:49;;;;;;;1.23;0.60;;;43.90;23.60;;;;;;5055470;28;20049;-79
2021/07/19 10:09:15;;;;;;;0.80;0.50;;;43.70;23.90;;;;;;5055613;28;20052;-79
2021/07/19 10:11:51;;;;;;;0.60;0.40;;;43.60;23.90;;;;;;5055175;28;20041;-79
2021/07/19 10:14:24;;;;;;;0.95;0.47;;;43.40;24.10;;;;;;5036577;28;20029;-79
2021/07/19 10:16:51;;;;;;;0.65;0.40;;;43.50;24.60;;;;;;5035988;28;20502;-79
2021/07/19 10:19:17;;;;;;;1.23;0.57;;;43.70;23.50;;;;;;5050965;28;20029;-79
2021/07/19 10:21:43;;;;;;;1.10;0.60;;;42.70;24.60;;;;;;5051773;28;20040;-80
2021/07/19 10:24:10;;;;;;;0.95;0.50;;;42.90;24.40;;;;;;5055569;28;20017;-82
2021/07/19 10:26:37;;;;;;;1.37;0.40;;;42.20;23.40;;;;;;5055479;28;20041;-81
2021/07/19 10:29:04;;;;;;;1.00;0.50;;;41.80;24.30;;;;;;5038871;28;20080;-81
2021/07/19 10:31:32;;;;;;;1.38;0.68;;;42.00;25.00;;;;;;5035358;28;20022;-82
2021/07/19 10:34:01;;;;;;;1.10;0.50;;;42.20;24.70;;;;;;5040809;28;20022;-81
2021/07/19 10:36:51;;;;;;;1.17;0.50;;;42.20;25.00;;;;;;5035300;28;20163;-81
2021/07/19 10:39:30;;;;;;;1.00;0.60;;;42.20;24.40;;;;;;5034679;28;20029;-80
2021/07/19 10:42:05;;;;;;;1.73;0.40;;;41.80;24.70;;;;;;5035284;28;20495;-86
2021/07/19 10:44:36;;;;;;;0.40;0.28;;;40.80;26.10;;;;;;5044966;28;20799;-79
2021/07/19 10:47:26;;;;;;;1.05;0.30;;;40.00;26.80;;;;;;5052895;28;20495;-84
2021/07/19 10:49:56;;;;;;;0.75;0.38;;;39.10;27.20;;;;;;5055491;28;20048;-79
2021/07/19 10:52:30;;;;;;;1.27;0.40;;;38.50;28.10;;;;;;5047943;28;20060;-80
2021/07/19 10:54:56;;;;;;;0.90;0.40;;;38.10;30.40;;;;;;5075109;28;20386;-81
2021/07/19 10:57:34;;;;;;;0.90;0.40;;;37.70;29.40;;;;;;5075140;28;20107;-81
2021/07/19 11:00:02;;;;;;;1.05;0.60;;;37.40;30.20;;;;;;5048851;28;20094;-84
2021/07/19 11:02:28;;;;;;;1.02;0.55;;;37.20;30.80;;;;;;5036654;28;20034;-82
2021/07/19 11:04:55;;;;;;;1.00;0.50;;;37.10;30.50;;;;;;5052703;28;20025;-80
2021/07/19 11:07:24;;;;;;;1.58;0.68;;;36.90;30.40;;;;;;5047558;28;20073;-81
2021/07/19 11:09:49;;;;;;;1.05;0.40;;;36.70;30.80;;;;;;5034969;28;20514;-82
2021/07/19 11:12:18;;;;;;;1.20;0.45;;;36.60;31.00;;;;;;5046313;28;20041;-82
2021/07/19 11:14:50;;;;;;;0.68;0.40;;;36.30;32.30;;;;;;5054919;28;20518;-81
2021/07/19 11:17:20;;;;;;;2.15;0.57;;;35.80;32.00;;;;;;5053468;28;20033;-81
2021/07/19 11:19:53;;;;;;;1.42;0.60;;;35.40;31.20;;;;;;5036189;28;20052;-82
2021/07/19 11:22:23;;;;;;;0.80;0.40;;;35.10;30.50;;;;;;5034991;28;20034;-81
2021/07/19 11:24:56;;;;;;;1.85;0.60;;;34.80;32.80;;;;;;5048764;28;20029;-81
2021/07/19 11:27:35;;;;;;;1.30;0.63;;;34.60;32.70;;;;;;5049610;28;20061;-89
2021/07/19 11:30:17;;;;;;;1.30;0.50;;;34.90;34.30;;;;;;5034746;28;20116;-88
2021/07/19 11:32:43;;;;;;;0.60;0.30;;;35.20;34.20;;;;;;5039250;28;20436;-90
2021/07/19 11:35:16;;;;;;;1.02;0.52;;;35.00;31.60;;;;;;5054853;28;20123;-89
2021/07/19 11:37:47;;;;;;;0.82;0.40;;;35.00;33.30;;;;;;5043572;28;20044;-91
2021/07/19 11:40:28;;;;;;;1.13;0.50;;;35.00;34.00;;;;;;5034707;28;20506;-72
2021/07/19 11:42:55;;;;;;;1.98;0.63;;;34.80;32.80;;;;;;5036415;28;20399;-72
2021/07/19 11:45:21;;;;;;;1.00;0.50;;;34.60;34.80;;;;;;5038238;28;20037;-71
2021/07/19 11:47:52;;;;;;;1.27;0.52;;;34.60;33.90;;;;;;5054597;28;20500;-71
2021/07/19 11:50:23;;;;;;;1.23;0.50;;;34.30;34.40;;;;;;5044834;28;20503;-72
2021/07/19 11:52:51;;;;;;;1.25;0.65;;;34.00;36.00;;;;;;5057405;28;20482;-72
2021/07/19 11:55:22;;;;;;;1.80;0.70;;;34.00;36.90;;;;;;5078305;28;20557;-74
2021/07/19 11:57:53;;;;;;;1.08;0.50;;;34.00;35.60;;;;;;5044822;28;20040;-75
2021/07/19 12:00:32;;;;;;;1.08;0.50;;;34.20;36.10;;;;;;5037958;28;20517;-73
2021/07/19 12:03:03;;;;;;;0.90;0.50;;;34.10;35.00;;;;;;5052304;28;20056;-72
2021/07/19 12:05:30;;;;;;;1.00;0.45;;;34.20;34.80;;;;;;5037768;28;20049;-74
2021/07/19 12:07:59;;;;;;;1.60;0.65;;;33.80;36.40;;;;;;5046120;28;20057;-74
2021/07/19 12:10:26;;;;;;;1.50;0.50;;;33.70;34.00;;;;;;5056012;28;20506;-73
2021/07/19 12:12:51;;;;;;;0.80;0.50;;;33.50;35.30;;;;;;5057817;28;20384;-72
2021/07/19 12:15:17;;;;;;;1.27;0.75;;;33.50;38.00;;;;;;5057742;28;20037;-72
2021/07/19 12:17:43;;;;;;;0.98;0.40;;;33.50;38.00;;;;;;5057771;28;20025;-72
2021/07/19 12:20:12;;;;;;;0.98;0.45;;;33.40;39.90;;;;;;5047404;28;20368;-71
2021/07/19 12:22:39;;;;;;;1.65;0.60;;;33.10;38.80;;;;;;5037940;28;20111;-72
2021/07/19 12:25:06;;;;;;;1.05;0.50;;;33.00;37.90;;;;;;5037984;28;20021;-71
2021/07/19 12:27:32;;;;;;;0.73;0.40;;;33.00;39.60;;;;;;5037555;28;20044;-71
2021/07/19 12:29:57;;;;;;;1.40;0.68;;;33.20;39.00;;;;;;5039073;28;20479;-71
2021/07/19 12:32:23;;;;;;;1.50;0.50;;;32.90;38.40;;;;;;5051776;28;20659;-72
2021/07/19 12:34:49;;;;;;;1.00;0.60;;;33.00;37.80;;;;;;5036509;28;20172;-71
2021/07/19 12:37:19;;;;;;;2.45;0.70;;;32.90;38.10;;;;;;5051968;28;20392;-71
2021/07/19 12:39:53;;;;;;;0.98;0.40;;;32.70;37.60;;;;;;5057474;28;20025;-71
2021/07/19 12:42:27;;;;;;;1.27;0.60;;;32.60;37.10;;;;;;5043410;28;20036;-71
2021/07/19 12:44:55;;;;;;;1.90;0.55;;;32.80;37.40;;;;;;5037567;28;20040;-71
2021/07/19 12:47:24;;;;;;;1.20;0.52;;;32.80;37.80;;;;;;5046750;28;20541;-72
2021/07/19 12:49:51;;;;;;;1.57;0.60;;;32.90;37.80;;;;;;5056947;28;20033;-71
2021/07/19 12:52:22;;;;;;;1.30;0.55;;;33.00;39.90;;;;;;5057410;28;20523;-71
2021/07/19 12:54:59;;;;;;;0.90;0.40;;;33.20;38.10;;;;;;5056274;28;20150;-71
2021/07/19 12:57:29;;;;;;;1.00;0.60;;;33.30;37.00;;;;;;5042877;28;20036;-71
2021/07/19 12:59:55;;;;;;;1.35;0.57;;;33.40;38.50;;;;;;5036823;28;20022;-75
2021/07/19 13:02:22;;;;;;;1.05;0.40;;;33.20;36.60;;;;;;5037066;28;20040;-71
2021/07/19 13:04:50;;;;;;;1.60;0.63;;;33.30;36.90;;;;;;5038958;28;20143;-78
2021/07/19 13:07:25;;;;;;;1.87;0.53;;;33.20;36.80;;;;;;5056660;28;20425;-75
2021/07/19 13:10:05;;;;;;;1.25;0.50;;;33.20;38.20;;;;;;5056918;28;20052;-69
2021/07/19 13:12:33;;;;;;;1.63;0.68;;;33.30;39.80;;;;;;5056041;28;20040;-70
2021/07/19 13:15:03;;;;;;;1.92;0.70;;;33.20;38.10;;;;;;5056571;28;20040;-69
2021/07/19 13:17:33;;;;;;;2.22;0.70;;;32.90;35.20;;;;;;5055454;28;20029;-70
2021/07/19 13:20:04;;;;;;;1.75;0.57;;;32.90;36.70;;;;;;5056032;28;20074;-69
2021/07/19 13:22:38;;;;;;;1.88;0.80;;;32.90;36.40;;;;;;5055878;28;20032;-69
2021/07/19 13:25:09;;;;;;;1.52;0.70;;;32.60;37.40;;;;;;5054386;28;20124;-69
2021/07/19 13:27:42;;;;;;;1.88;0.70;;;32.40;34.40;;;;;;5056478;28;20029;-69
2021/07/19 13:30:11;;;;;;;1.17;0.52;;;32.30;37.50;;;;;;5056259;28;20470;-69
2021/07/19 13:32:38;;;;;;;1.65;0.55;;;32.30;37.80;;;;;;5049079;28;20037;-69
2021/07/19 13:35:10;;;;;;;1.92;0.50;;;32.40;37.10;;;;;;5048024;28;20040;-70
2021/07/19 13:37:40;;;;;;;1.33;1.00;;;32.50;38.40;;;;;;5056012;28;20036;-70
2021/07/19 13:40:10;;;;;;;1.23;0.60;;;32.50;38.20;;;;;;5054858;28;20025;-70
2021/07/19 13:42:36;;;;;;;1.83;0.75;;;32.50;38.50;;;;;;5041208;28;20121;-70
2021/07/19 13:45:04;;;;;;;1.80;0.70;;;32.40;39.40;;;;;;5055500;28;20525;-78
2021/07/19 13:47:30;;;;;;;1.00;0.70;;;32.70;36.30;;;;;;5052796;28;20029;-78
2021/07/19 13:49:55;;;;;;;1.48;0.65;;;33.10;34.90;;;;;;5036056;28;20140;-77
2021/07/19 13:52:21;;;;;;;2.00;0.80;;;33.00;33.30;;;;;;5038134;28;20025;-77
2021/07/19 13:54:47;;;;;;;1.50;0.82;;;33.30;33.60;;;;;;5076299;28;20120;-78
2021/07/19 13:57:13;;;;;;;2.25;0.60;;;33.50;36.00;;;;;;5050185;28;20108;-78
2021/07/19 13:59:38;;;;;;;1.75;0.63;;;33.70;34.30;;;;;;5035705;28;20143;-78
2021/07/19 14:02:05;;;;;;;1.90;0.50;;;33.80;33.50;;;;;;5035001;28;20057;-79
2021/07/19 14:04:31;;;;;;;2.50;0.70;;;33.80;33.50;;;;;;5049445;28;20039;-79
2021/07/19 14:06:57;;;;;;;2.85;0.90;;;33.80;33.00;;;;;;5054651;28;20053;-78
2021/07/19 14:09:23;;;;;;;2.17;0.77;;;33.60;30.10;;;;;;5056018;28;20115;-78
2021/07/19 14:11:50;;;;;;;1.20;0.57;;;33.70;31.80;;;;;;5039613;28;20037;-78
2021/07/19 14:14:16;;;;;;;1.60;0.68;;;33.80;31.50;;;;;;5038307;28;20116;-79
2021/07/19 14:16:42;;;;;;;2.42;0.70;;;33.80;31.60;;;;;;5055022;28;20032;-78
2021/07/19 14:19:09;;;;;;;1.35;0.60;;;33.80;32.50;;;;;;5040777;28;20037;-79
2021/07/19 14:21:35;;;;;;;2.25;0.70;;;33.80;32.10;;;;;;5035532;28;20022;-78
2021/07/19 14:24:02;;;;;;;1.33;0.70;;;33.80;31.20;;;;;;5034204;28;20025;-78
2021/07/19 14:26:30;;;;;;;1.23;0.60;;;33.90;31.90;;;;;;5035415;28;20106;-78
2021/07/19 14:28:57;;;;;;;1.05;0.52;;;33.90;31.80;;;;;;5035504;28;20041;-78
2021/07/19 14:31:23;;;;;;;1.45;0.63;;;33.80;32.00;;;;;;5035481;28;20084;-78
2021/07/19 14:33:49;;;;;;;1.40;0.70;;;33.60;32.60;;;;;;5035854;28;20053;-79
2021/07/19 14:36:15;;;;;;;1.77;0.57;;;33.50;33.10;;;;;;5050133;28;20050;-78
2021/07/19 14:38:41;;;;;;;1.40;0.60;;;33.60;33.70;;;;;;5049427;28;20118;-81
2021/07/19 14:41:07;;;;;;;1.85;0.70;;;33.70;32.90;;;;;;5055087;28;20029;-76
2021/07/19 14:43:32;;;;;;;1.40;0.90;;;33.80;33.50;;;;;;5054096;28;20021;-78
2021/07/19 14:45:59;;;;;;;1.55;0.90;;;33.80;34.60;;;;;;5053197;28;20029;-80
2021/07/19 14:48:24;;;;;;;1.80;0.70;;;33.80;33.00;;;;;;5053271;28;20526;-79
2021/07/19 14:50:50;;;;;;;1.20;0.70;;;33.80;32.00;;;;;;5046036;28;20029;-80
2021/07/19 14:53:16;;;;;;;1.70;0.88;;;33.90;32.40;;;;;;5060661;28;20016;-80
2021/07/19 14:55:42;;;;;;;1.20;0.90;;;33.90;31.90;;;;;;5055013;28;20025;-80
2021/07/19 14:58:07;;;;;;;1.20;0.60;;;33.80;32.60;;;;;;5054876;28;20048;-80
2021/07/19 15:00:33;;;;;;;1.05;0.60;;;33.90;32.90;;;;;;5043745;28;20029;-80
2021/07/19 15:02:59;;;;;;;1.15;0.57;;;33.90;32.60;;;;;;5034729;28;20036;-80
2021/07/19 15:05:24;;;;;;;1.15;0.55;;;33.90;32.40;;;;;;5034808;28;20037;-79
2021/07/19 15:07:50;;;;;;;1.73;0.73;;;34.00;32.80;;;;;;5050325;28;20102;-79
2021/07/19 15:10:16;;;;;;;1.85;0.68;;;33.90;33.60;;;;;;5034968;28;20025;-80
2021/07/19 15:12:42;;;;;;;2.60;0.60;;;33.90;32.80;;;;;;5038835;28;20376;-80
2021/07/19 15:15:09;;;;;;;1.30;0.75;;;33.90;33.70;;;;;;5055018;28;20105;-80
2021/07/19 15:17:34;;;;;;;1.00;0.63;;;33.90;32.30;;;;;;5052920;28;20127;-79
2021/07/19 15:20:00;;;;;;;0.95;0.57;;;33.80;33.40;;;;;;5054336;28;20065;-82
2021/07/19 15:22:26;;;;;;;1.55;0.73;;;33.80;32.70;;;;;;5033562;28;20079;-83
2021/07/19 15:24:53;;;;;;;1.70;0.68;;;33.80;33.60;;;;;;5032658;28;20077;-79
2021/07/19 15:27:18;;;;;;;1.48;0.70;;;33.80;33.50;;;;;;5033783;28;20025;-79
2021/07/19 15:29:44;;;;;;;2.63;0.60;;;33.60;33.30;;;;;;5038413;28;20029;-79
2021/07/19 15:32:10;;;;;;;1.63;0.70;;;33.70;33.40;;;;;;5038836;28;20034;-79
2021/07/19 15:34:35;;;;;;;0.90;0.60;;;33.60;32.90;;;;;;5040283;28;20039;-79
2021/07/19 15:37:01;;;;;;;1.67;0.75;;;33.60;32.30;;;;;;5055437;28;20461;-77
2021/07/19 15:39:27;;;;;;;2.22;0.90;;;33.60;33.80;;;;;;5057884;28;20032;-79
2021/07/19 15:41:53;;;;;;;1.17;0.70;;;33.60;33.60;;;;;;5057170;28;20445;-79
2021/07/19 15:44:18;;;;;;;1.35;0.70;;;33.70;33.30;;;;;;5056002;28;20025;-79
2021/07/19 15:46:44;;;;;;;1.33;0.60;;;33.60;33.70;;;;;;5056450;28;20081;-79
2021/07/19 15:49:11;;;;;;;1.35;0.73;;;33.50;33.50;;;;;;5057617;28;20612;-79
2021/07/19 15:51:37;;;;;;;1.45;0.60;;;33.30;32.30;;;;;;5054724;28;20090;-79
2021/07/19 15:54:03;;;;;;;1.27;0.60;;;33.30;33.20;;;;;;5071779;28;20418;-79
2021/07/19 15:56:29;;;;;;;1.40;0.60;;;33.40;33.50;;;;;;5077987;28;20028;-78
2021/07/19 15:58:54;;;;;;;1.73;0.70;;;33.30;33.80;;;;;;5050502;28;20096;-76
2021/07/19 16:01:20;;;;;;;1.20;0.50;;;33.20;32.90;;;;;;5037721;28;20172;-75
2021/07/19 16:03:46;;;;;;;0.98;0.60;;;33.20;33.60;;;;;;5051426;28;20061;-77
2021/07/19 16:06:12;;;;;;;1.23;0.68;;;33.20;33.70;;;;;;5036383;28;20480;-75
2021/07/19 16:08:37;;;;;;;1.88;0.50;;;33.30;34.20;;;;;;5037768;28;20531;-75
2021/07/19 16:11:04;;;;;;;1.73;0.75;;;33.20;32.90;;;;;;5038008;28;20033;-76
2021/07/19 16:13:30;;;;;;;1.15;0.77;;;33.30;33.20;;;;;;5043844;28;20078;-76
2021/07/19 16:15:56;;;;;;;1.23;0.80;;;33.30;34.10;;;;;;5049806;28;20029;-76
2021/07/19 16:18:22;;;;;;;2.22;0.90;;;33.30;34.10;;;;;;5055470;28;20025;-76
2021/07/19 16:20:47;;;;;;;1.20;0.60;;;33.40;32.90;;;;;;5058077;28;20021;-77
2021/07/19 16:23:14;;;;;;;1.15;0.65;;;33.40;32.30;;;;;;5056148;28;20650;-77
2021/07/19 16:25:42;;;;;;;1.25;0.75;;;33.30;32.80;;;;;;5054938;28;20032;-76
2021/07/19 16:28:09;;;;;;;1.55;0.77;;;33.30;32.60;;;;;;5056166;28;20033;-76
2021/07/19 16:30:36;;;;;;;1.88;0.77;;;33.30;31.90;;;;;;5056749;28;20028;-76
2021/07/19 16:33:02;;;;;;;2.17;0.63;;;33.10;32.40;;;;;;5049063;28;20055;-77
2021/07/19 16:35:28;;;;;;;1.50;0.77;;;33.10;32.70;;;;;;5056875;28;20021;-77
2021/07/19 16:37:54;;;;;;;1.92;0.77;;;33.10;32.30;;;;;;5048017;28;20021;-76
2021/07/19 16:40:20;;;;;;;1.05;0.70;;;33.10;33.00;;;;;;5034346;28;20052;-76
2021/07/19 16:42:45;;;;;;;1.98;0.70;;;33.10;33.00;;;;;;5026611;28;20969;-76
2021/07/19 16:47:47;;;;;;;1.38;0.80;;;33.10;33.40;;;;;;5051349;28;20026;-76
2021/07/19 16:50:14;;;;;;;1.90;0.77;;;33.00;33.00;;;;;;5037582;28;20413;-75
2021/07/19 16:52:40;;;;;;;1.40;0.85;;;33.00;33.10;;;;;;5030137;28;20041;-77
2021/07/19 16:55:06;;;;;;;1.98;0.60;;;33.00;33.50;;;;;;5055775;28;20025;-79
2021/07/19 16:57:32;;;;;;;1.30;0.63;;;32.90;34.10;;;;;;5055911;28;20032;-78
2021/07/19 16:59:59;;;;;;;1.77;0.70;;;32.80;33.00;;;;;;5055858;28;20024;-77
2021/07/19 17:02:25;;;;;;;1.38;0.73;;;32.80;33.60;;;;;;5050267;28;20507;-77
2021/07/19 17:04:50;;;;;;;1.85;1.00;;;32.80;33.70;;;;;;5073107;28;20079;-79
2021/07/19 17:07:16;;;;;;;2.10;0.90;;;32.80;33.50;;;;;;5054883;28;20564;-78
2021/07/19 17:09:42;;;;;;;1.40;0.90;;;32.70;33.40;;;;;;5056650;28;20017;-79
2021/07/19 17:12:09;;;;;;;1.23;0.75;;;32.60;33.00;;;;;;5055608;28;20392;-78
2021/07/19 17:14:36;;;;;;;2.58;0.85;;;32.40;33.30;;;;;;5057293;28;20033;-86
2021/07/19 17:17:02;;;;;;;1.20;0.80;;;32.30;33.60;;;;;;5053065;28;20061;-80
2021/07/19 17:19:28;;;;;;;1.60;0.77;;;32.30;33.20;;;;;;5048008;28;20076;-79
2021/07/19 17:21:53;;;;;;;1.75;0.90;;;32.30;33.70;;;;;;5054359;28;20499;-79
2021/07/19 17:24:19;;;;;;;1.88;0.70;;;32.20;33.80;;;;;;5041200;28;20059;-79
2021/07/19 17:26:45;;;;;;;2.08;0.93;;;32.10;33.60;;;;;;5048216;28;20108;-79
2021/07/19 17:29:11;;;;;;;1.20;0.60;;;32.00;33.80;;;;;;5036292;28;20032;-78
2021/07/19 17:31:36;;;;;;;1.10;0.50;;;31.90;33.30;;;;;;5049714;28;20036;-79
2021/07/19 17:34:02;;;;;;;1.52;0.60;;;31.90;33.80;;;;;;5036979;28;20410;-86
2021/07/19 17:36:28;;;;;;;2.13;0.75;;;31.90;33.90;;;;;;5044041;28;20040;-79
2021/07/19 17:38:53;;;;;;;2.75;0.82;;;31.90;34.20;;;;;;5045128;28;20025;-74
2021/07/19 17:41:19;;;;;;;0.88;0.60;;;31.80;34.50;;;;;;5048987;28;20056;-76
2021/07/19 17:43:45;;;;;;;1.60;0.70;;;31.80;33.80;;;;;;5044706;28;20021;-77
2021/07/19 17:46:13;;;;;;;1.90;0.90;;;31.70;34.30;;;;;;5045654;28;20033;-76
2021/07/19 17:48:38;;;;;;;1.25;0.70;;;31.70;35.00;;;;;;5050927;28;20028;-75
2021/07/19 17:51:04;;;;;;;1.33;0.60;;;31.50;35.30;;;;;;5038467;28;20037;-76
2021/07/19 17:53:31;;;;;;;1.48;0.80;;;31.50;35.00;;;;;;5053776;28;20029;-76
2021/07/19 17:55:56;;;;;;;1.58;0.70;;;31.40;35.30;;;;;;5048929;28;20101;-76
2021/07/19 17:58:22;;;;;;;1.17;0.80;;;31.30;35.40;;;;;;5050241;28;20502;-74
2021/07/19 18:00:48;;;;;;;2.13;0.70;;;31.30;35.50;;;;;;5048174;28;20436;-75
2021/07/19 18:03:14;;;;;;;0.98;0.65;;;31.20;35.80;;;;;;5052553;28;20059;-75
2021/07/19 18:05:39;;;;;;;0.90;0.70;;;31.10;36.10;;;;;;5042620;28;20045;-77
2021/07/19 18:08:07;;;;;;;1.55;0.73;;;31.00;36.50;;;;;;5037535;28;20550;-75
2021/07/19 18:10:33;;;;;;;1.30;0.82;;;31.00;36.20;;;;;;5045436;28;20055;-77
2021/07/19 18:13:00;;;;;;;1.75;0.70;;;31.00;36.40;;;;;;5047386;28;20387;-76
2021/07/19 18:15:27;;;;;;;1.00;0.65;;;31.00;36.70;;;;;;5044447;28;20396;-77
2021/07/19 18:17:55;;;;;;;1.20;0.73;;;30.90;36.70;;;;;;5046358;28;20021;-81